Time;durP1;ratioP1;P1;durP2;ratioP2;P2;SDS_P1;SDS_P2;PMS_P1;PMS_P2;Temp;Humidity;BMP_temperature;BMP_pressure;BME280_temperature;BME280_humidity;BME280_pressure;Samples;Min_cycle;Max_cycle;Signal;HPM_P1;HPM_P2
2021/10/29 00:01:11;;;;;;;10.00;5.95;;;12.60;78.10;;;;;;5007769;28;20030;-72
2021/10/29 00:03:37;;;;;;;11.70;6.18;;;12.50;78.40;;;;;;5007898;28;20062;-73
2021/10/29 00:06:03;;;;;;;10.65;5.82;;;12.50;78.30;;;;;;4998766;28;20038;-71
2021/10/29 00:08:29;;;;;;;9.82;6.50;;;12.50;78.30;;;;;;5002038;28;20038;-72
2021/10/29 00:10:55;;;;;;;10.35;6.43;;;12.50;78.50;;;;;;5001856;28;20033;-72
2021/10/29 00:13:21;;;;;;;13.50;6.38;;;12.50;78.50;;;;;;5000850;28;20267;-72
2021/10/29 00:15:47;;;;;;;12.88;7.25;;;12.40;78.50;;;;;;5000120;28;20040;-72
2021/10/29 00:18:12;;;;;;;10.02;6.28;;;12.40;78.60;;;;;;4998557;28;20058;-71
2021/10/29 00:20:38;;;;;;;9.55;6.40;;;12.40;78.80;;;;;;4999773;28;20416;-71
2021/10/29 00:23:04;;;;;;;12.07;6.40;;;12.40;78.50;;;;;;4998350;28;20049;-73
2021/10/29 00:25:30;;;;;;;10.15;6.03;;;12.40;78.50;;;;;;4998691;28;20044;-72
2021/10/29 00:27:56;;;;;;;11.00;6.63;;;12.50;78.30;;;;;;4997339;28;20037;-71
2021/10/29 00:30:22;;;;;;;11.23;6.43;;;12.50;78.40;;;;;;4999378;28;20034;-70
2021/10/29 00:32:48;;;;;;;13.80;6.63;;;12.50;78.50;;;;;;4999430;28;20416;-71
2021/10/29 00:35:14;;;;;;;12.63;6.80;;;12.40;78.60;;;;;;4998831;28;20029;-73
2021/10/29 00:37:40;;;;;;;11.68;6.30;;;12.40;78.50;;;;;;5000183;28;20102;-71
2021/10/29 00:40:10;;;;;;;12.00;6.53;;;12.40;78.60;;;;;;5002837;28;20557;-75
2021/10/29 00:42:36;;;;;;;9.18;6.30;;;12.30;78.80;;;;;;4998370;28;20037;-71
2021/10/29 00:45:04;;;;;;;11.38;6.90;;;12.30;78.80;;;;;;5000631;28;20038;-70
2021/10/29 00:47:30;;;;;;;11.65;6.88;;;12.30;78.80;;;;;;4998630;28;20034;-70
2021/10/29 00:49:56;;;;;;;11.13;6.32;;;12.30;79.00;;;;;;4998655;28;21254;-72
2021/10/29 00:52:21;;;;;;;11.27;6.78;;;12.20;79.30;;;;;;4998974;28;20048;-72
2021/10/29 00:54:47;;;;;;;11.77;7.20;;;12.20;79.40;;;;;;4998253;28;20064;-71
2021/10/29 00:57:13;;;;;;;12.57;7.10;;;12.20;79.30;;;;;;5012264;28;20126;-76
2021/10/29 00:59:39;;;;;;;12.55;6.68;;;12.20;79.30;;;;;;4997842;28;20049;-71
2021/10/29 01:02:05;;;;;;;12.43;7.20;;;12.20;79.30;;;;;;4997844;28;20494;-70
2021/10/29 01:04:30;;;;;;;10.45;6.18;;;12.20;79.30;;;;;;4998739;28;20297;-76
2021/10/29 01:06:57;;;;;;;14.23;6.75;;;12.20;79.20;;;;;;4998998;28;20061;-72
2021/10/29 01:09:23;;;;;;;14.20;7.32;;;12.20;79.30;;;;;;5000775;28;20103;-71
2021/10/29 01:11:48;;;;;;;10.52;7.07;;;12.20;79.50;;;;;;4999542;28;20037;-71
2021/10/29 01:14:15;;;;;;;10.90;6.93;;;12.10;79.20;;;;;;4999069;28;20030;-73
2021/10/29 01:16:41;;;;;;;12.63;6.85;;;12.10;79.30;;;;;;4996890;28;20046;-75
2021/10/29 01:19:08;;;;;;;10.88;6.93;;;12.10;79.50;;;;;;4994371;28;20413;-70
2021/10/29 01:21:34;;;;;;;13.32;7.55;;;12.10;79.50;;;;;;4995544;28;20037;-74
2021/10/29 01:24:00;;;;;;;10.07;7.07;;;12.10;79.40;;;;;;4995967;28;20042;-71
2021/10/29 01:26:26;;;;;;;11.27;7.60;;;12.10;79.40;;;;;;4999113;28;20036;-71
2021/10/29 01:28:52;;;;;;;10.30;6.78;;;12.10;79.50;;;;;;4997154;28;20385;-70
2021/10/29 01:31:18;;;;;;;10.98;7.53;;;12.10;79.60;;;;;;5001458;28;20135;-72
2021/10/29 01:33:44;;;;;;;13.45;7.60;;;12.10;79.80;;;;;;5005611;28;20120;-71
2021/10/29 01:36:11;;;;;;;13.32;7.28;;;12.10;79.70;;;;;;5010990;28;20064;-72
2021/10/29 01:38:40;;;;;;;10.27;7.45;;;12.10;79.60;;;;;;5008935;28;20042;-72
2021/10/29 01:41:07;;;;;;;11.75;7.38;;;12.00;79.90;;;;;;5025943;28;20114;-71
2021/10/29 01:43:44;;;;;;;13.50;7.75;;;12.00;79.90;;;;;;5012546;28;20393;-73
2021/10/29 01:46:10;;;;;;;12.18;7.57;;;12.00;80.10;;;;;;5009345;28;20034;-72
2021/10/29 01:48:48;;;;;;;12.90;8.52;;;12.00;79.90;;;;;;5010344;28;20397;-71
2021/10/29 01:51:14;;;;;;;11.68;7.63;;;12.00;79.80;;;;;;5009648;28;20075;-72
2021/10/29 01:53:41;;;;;;;11.70;7.90;;;12.00;80.20;;;;;;5015759;28;20045;-71
2021/10/29 01:56:07;;;;;;;11.48;7.90;;;12.10;79.90;;;;;;5025588;28;20042;-71
2021/10/29 01:58:34;;;;;;;12.57;7.88;;;12.00;80.00;;;;;;5007895;28;20033;-71
2021/10/29 02:01:00;;;;;;;13.30;8.43;;;12.10;79.90;;;;;;5008600;28;20061;-71
2021/10/29 02:03:26;;;;;;;10.27;7.88;;;12.10;79.90;;;;;;5010234;28;20088;-74
2021/10/29 02:05:52;;;;;;;12.85;8.55;;;12.00;80.00;;;;;;5000732;28;20438;-72
2021/10/29 02:08:23;;;;;;;13.10;8.20;;;12.00;79.90;;;;;;5006035;28;20025;-73
2021/10/29 02:10:48;;;;;;;13.50;8.73;;;11.80;80.50;;;;;;5000117;28;20061;-73
2021/10/29 02:13:14;;;;;;;12.65;8.27;;;11.80;80.60;;;;;;5016673;28;20065;-73
2021/10/29 02:15:40;;;;;;;14.20;8.70;;;11.80;80.50;;;;;;5014173;28;20116;-71
2021/10/29 02:18:05;;;;;;;13.85;9.48;;;11.90;80.50;;;;;;5005104;28;20084;-72
2021/10/29 02:20:31;;;;;;;14.77;8.95;;;11.80;80.50;;;;;;5002323;28;20413;-72
2021/10/29 02:22:57;;;;;;;13.63;8.95;;;11.80;80.70;;;;;;5016089;28;20085;-71
2021/10/29 02:25:23;;;;;;;15.48;9.90;;;11.80;80.90;;;;;;5002591;28;20825;-70
2021/10/29 02:27:48;;;;;;;14.23;10.15;;;11.70;80.90;;;;;;5017469;28;20117;-71
2021/10/29 02:30:14;;;;;;;15.32;10.35;;;11.70;81.20;;;;;;5004837;28;20117;-71
2021/10/29 02:32:40;;;;;;;14.43;10.30;;;11.60;81.10;;;;;;5003098;28;20444;-71
2021/10/29 02:35:06;;;;;;;13.07;9.15;;;11.60;81.40;;;;;;5000918;28;20103;-72
2021/10/29 02:37:32;;;;;;;14.48;9.32;;;11.60;81.50;;;;;;4999116;28;20383;-73
2021/10/29 02:39:58;;;;;;;16.40;10.00;;;11.60;81.40;;;;;;5015359;28;20381;-71
2021/10/29 02:42:23;;;;;;;15.40;10.18;;;11.60;81.60;;;;;;5000524;28;20048;-71
2021/10/29 02:44:49;;;;;;;14.13;10.63;;;11.60;81.40;;;;;;5000466;28;20560;-72
2021/10/29 02:47:15;;;;;;;14.63;10.90;;;11.60;81.50;;;;;;5000504;28;20037;-76
2021/10/29 02:49:41;;;;;;;14.40;9.88;;;11.60;81.60;;;;;;5000062;28;20030;-71
2021/10/29 02:52:07;;;;;;;15.80;11.15;;;11.50;81.70;;;;;;4999511;28;20073;-75
2021/10/29 02:54:32;;;;;;;16.38;10.18;;;11.50;81.80;;;;;;5001463;28;20491;-72
2021/10/29 02:56:58;;;;;;;14.95;10.10;;;11.50;81.80;;;;;;5000463;28;20037;-70
2021/10/29 02:59:24;;;;;;;14.57;10.50;;;11.60;81.60;;;;;;4996944;28;20045;-75
2021/10/29 03:01:49;;;;;;;13.88;9.98;;;11.50;81.60;;;;;;4998930;28;20031;-75
2021/10/29 03:04:15;;;;;;;14.45;9.95;;;11.50;82.00;;;;;;5003964;28;20046;-71
2021/10/29 03:06:41;;;;;;;15.45;10.75;;;11.50;81.90;;;;;;5018229;28;20034;-73
2021/10/29 03:09:07;;;;;;;14.25;10.20;;;11.50;81.70;;;;;;5003565;28;20081;-71
2021/10/29 03:11:33;;;;;;;15.05;10.82;;;11.50;81.70;;;;;;5001887;28;20030;-71
2021/10/29 03:13:59;;;;;;;12.90;9.75;;;11.50;81.60;;;;;;5001553;28;20742;-71
2021/10/29 03:16:24;;;;;;;16.20;10.20;;;11.50;81.80;;;;;;5012963;28;20037;-72
2021/10/29 03:18:50;;;;;;;14.65;10.73;;;11.60;81.70;;;;;;4999544;28;20049;-73
2021/10/29 03:21:15;;;;;;;15.77;10.73;;;11.60;81.50;;;;;;4999642;28;20033;-74
2021/10/29 03:23:42;;;;;;;16.85;10.23;;;11.60;81.50;;;;;;4999995;28;20370;-71
2021/10/29 03:26:08;;;;;;;15.68;10.38;;;11.60;81.50;;;;;;4998551;28;20541;-72
2021/10/29 03:28:35;;;;;;;15.55;10.30;;;11.60;81.50;;;;;;4999714;28;20117;-71
2021/10/29 03:31:01;;;;;;;16.63;11.07;;;11.60;81.70;;;;;;4999140;28;20627;-73
2021/10/29 03:33:26;;;;;;;16.45;9.68;;;11.60;81.70;;;;;;5004208;28;20084;-71
2021/10/29 03:35:52;;;;;;;16.83;10.60;;;11.50;81.80;;;;;;5009571;28;20398;-71
2021/10/29 03:41:06;;;;;;;14.68;9.93;;;11.50;82.00;;;;;;5007347;28;20044;-72
2021/10/29 03:43:37;;;;;;;13.50;9.90;;;11.50;82.10;;;;;;5006985;28;20064;-70
2021/10/29 03:46:12;;;;;;;17.20;10.15;;;11.50;81.90;;;;;;5007963;28;20044;-71
2021/10/29 03:53:42;;;;;;;15.05;10.15;;;11.50;82.00;;;;;;5009518;28;20080;-73
2021/10/29 03:56:16;;;;;;;15.75;10.20;;;11.50;81.90;;;;;;5008419;28;20057;-71
2021/10/29 03:58:42;;;;;;;16.05;10.60;;;11.50;81.90;;;;;;5021025;28;20437;-72
2021/10/29 04:01:07;;;;;;;15.05;10.73;;;11.50;81.90;;;;;;5006953;28;20033;-71
2021/10/29 04:03:33;;;;;;;15.32;11.27;;;11.50;81.90;;;;;;5008295;28;20255;-72
2021/10/29 04:05:58;;;;;;;13.23;10.18;;;11.50;81.80;;;;;;4999770;28;20392;-70
2021/10/29 04:08:24;;;;;;;16.63;10.77;;;11.50;81.90;;;;;;5001196;28;20109;-72
2021/10/29 04:10:50;;;;;;;15.82;10.63;;;11.50;81.80;;;;;;5014979;28;20122;-72
2021/10/29 04:13:17;;;;;;;15.68;9.85;;;11.60;81.80;;;;;;5001260;28;20038;-72
2021/10/29 04:15:43;;;;;;;15.65;10.15;;;11.50;81.70;;;;;;5000214;28;20077;-72
2021/10/29 04:18:09;;;;;;;15.27;10.50;;;11.50;81.70;;;;;;4997435;28;20145;-71
2021/10/29 04:20:35;;;;;;;11.57;8.73;;;11.50;81.80;;;;;;4999267;28;20936;-71
2021/10/29 04:23:01;;;;;;;17.15;9.85;;;11.50;81.70;;;;;;4996848;28;20500;-71
2021/10/29 04:25:27;;;;;;;14.75;9.82;;;11.40;81.80;;;;;;5013399;28;20034;-72
2021/10/29 04:30:48;;;;;;;16.45;9.82;;;11.50;81.80;;;;;;4993274;28;20034;-71
2021/10/29 04:33:14;;;;;;;15.05;9.65;;;11.50;81.60;;;;;;5011794;28;20040;-76
2021/10/29 04:35:50;;;;;;;17.20;9.57;;;11.50;81.70;;;;;;4998520;28;20480;-75
2021/10/29 04:38:16;;;;;;;14.48;9.95;;;11.60;81.50;;;;;;4994373;28;20046;-71
2021/10/29 04:40:42;;;;;;;16.05;9.95;;;11.60;81.20;;;;;;4995512;28;20037;-74
2021/10/29 04:43:10;;;;;;;15.48;9.18;;;11.60;81.20;;;;;;5001292;28;20042;-72
2021/10/29 04:45:36;;;;;;;15.18;9.05;;;11.60;81.00;;;;;;4995874;28;20477;-72
2021/10/29 04:48:03;;;;;;;13.73;8.73;;;11.60;81.20;;;;;;4996540;28;20400;-75
2021/10/29 04:50:29;;;;;;;14.00;9.93;;;11.60;81.10;;;;;;4997450;28;20045;-72
2021/10/29 04:52:55;;;;;;;14.40;9.30;;;11.60;81.10;;;;;;4997076;28;20380;-73
2021/10/29 04:55:21;;;;;;;18.40;10.50;;;11.60;81.20;;;;;;4997123;28;20048;-76
2021/10/29 04:57:47;;;;;;;15.63;10.02;;;11.60;81.30;;;;;;4995599;28;20049;-72
2021/10/29 05:00:13;;;;;;;15.15;8.82;;;11.60;81.40;;;;;;4999147;28;20029;-71
2021/10/29 05:02:39;;;;;;;17.05;9.48;;;11.60;81.30;;;;;;5010727;28;20049;-73
2021/10/29 05:05:07;;;;;;;14.27;9.25;;;11.50;81.30;;;;;;4998432;28;20406;-72
2021/10/29 05:07:34;;;;;;;14.55;10.13;;;11.50;81.50;;;;;;5001260;28;20037;-74
2021/10/29 05:09:59;;;;;;;15.93;9.30;;;11.50;81.50;;;;;;5003756;28;20038;-71
2021/10/29 05:12:26;;;;;;;14.52;9.15;;;11.50;81.50;;;;;;4999568;28;20042;-71
2021/10/29 05:14:53;;;;;;;15.27;9.40;;;11.50;81.40;;;;;;4997356;28;20516;-73
2021/10/29 05:17:19;;;;;;;13.40;8.80;;;11.50;81.10;;;;;;5000330;28;20493;-74
2021/10/29 05:19:45;;;;;;;13.43;8.15;;;11.50;81.10;;;;;;4996700;28;20137;-71
2021/10/29 05:22:11;;;;;;;14.23;8.98;;;11.60;81.00;;;;;;4997098;28;20065;-72
2021/10/29 05:24:37;;;;;;;15.48;9.15;;;11.60;80.90;;;;;;5014546;28;20504;-71
2021/10/29 05:27:03;;;;;;;11.43;8.40;;;11.50;80.90;;;;;;4998867;28;20049;-72
2021/10/29 05:29:29;;;;;;;11.75;8.52;;;11.50;80.90;;;;;;4999131;28;21463;-72
2021/10/29 05:31:58;;;;;;;12.50;8.73;;;11.50;81.00;;;;;;4998804;28;20470;-73
2021/10/29 05:34:23;;;;;;;13.95;8.95;;;11.50;81.20;;;;;;5010308;28;20034;-71
2021/10/29 05:36:49;;;;;;;13.25;8.30;;;11.40;81.20;;;;;;5005762;28;20042;-72
2021/10/29 05:39:15;;;;;;;14.18;9.27;;;11.40;81.20;;;;;;4997794;28;20034;-71
2021/10/29 05:41:47;;;;;;;15.65;9.18;;;11.40;81.20;;;;;;5004573;28;20034;-72
2021/10/29 05:44:18;;;;;;;12.80;9.15;;;11.40;81.10;;;;;;5016004;28;20105;-69
2021/10/29 05:46:45;;;;;;;14.55;9.48;;;11.40;81.20;;;;;;5002244;28;20042;-70
2021/10/29 05:49:12;;;;;;;16.10;8.77;;;11.40;81.20;;;;;;5001572;28;20493;-72
2021/10/29 05:51:43;;;;;;;16.95;9.13;;;11.40;81.10;;;;;;5005198;28;20104;-69
2021/10/29 05:54:13;;;;;;;15.38;9.25;;;11.40;81.10;;;;;;5004733;28;20045;-68
2021/10/29 05:56:39;;;;;;;13.55;8.25;;;11.40;81.10;;;;;;5008044;28;20382;-73
2021/10/29 05:59:05;;;;;;;13.60;8.82;;;11.40;80.90;;;;;;5005785;28;20034;-69
2021/10/29 06:01:33;;;;;;;12.93;8.82;;;11.40;81.10;;;;;;5006704;28;20033;-68
2021/10/29 06:03:59;;;;;;;13.30;9.80;;;11.40;81.00;;;;;;5021410;28;20397;-69
2021/10/29 06:06:25;;;;;;;14.02;9.32;;;11.30;81.20;;;;;;5005861;28;20032;-70
2021/10/29 06:08:50;;;;;;;13.07;9.43;;;11.20;81.30;;;;;;5011011;28;20385;-68
2021/10/29 06:11:16;;;;;;;15.68;9.43;;;11.20;81.60;;;;;;4998430;28;20049;-68
2021/10/29 06:13:42;;;;;;;15.73;9.38;;;11.20;81.40;;;;;;5002490;28;20446;-72
2021/10/29 06:16:09;;;;;;;16.52;9.70;;;11.20;81.50;;;;;;5003984;28;20038;-68
2021/10/29 06:18:35;;;;;;;12.70;9.00;;;11.30;81.30;;;;;;5002223;28;20048;-69
2021/10/29 06:21:01;;;;;;;13.00;9.15;;;11.30;81.20;;;;;;5000716;28;20033;-68
2021/10/29 06:23:36;;;;;;;16.77;9.00;;;11.30;81.20;;;;;;5001696;28;20082;-73
2021/10/29 06:26:10;;;;;;;13.43;8.00;;;11.30;81.20;;;;;;5016443;28;20038;-69
2021/10/29 06:28:35;;;;;;;14.82;9.15;;;11.20;81.20;;;;;;5001467;28;20030;-69
2021/10/29 06:31:01;;;;;;;16.17;9.07;;;11.20;81.30;;;;;;5016592;28;20046;-69
2021/10/29 06:33:27;;;;;;;14.68;8.93;;;11.20;81.50;;;;;;4999324;28;20081;-72
2021/10/29 06:35:54;;;;;;;12.35;8.52;;;11.20;81.20;;;;;;5006015;28;20050;-68
2021/10/29 06:38:20;;;;;;;14.77;9.20;;;11.30;81.10;;;;;;5003715;28;20029;-69
2021/10/29 06:40:47;;;;;;;13.23;8.73;;;11.30;80.90;;;;;;5002884;28;20064;-68
2021/10/29 06:43:26;;;;;;;15.80;9.00;;;11.40;81.10;;;;;;5002707;28;20081;-68
2021/10/29 06:59:30;;;;;;;12.25;8.85;;;11.40;81.00;;;;;;4976456;28;21216;-70
2021/10/29 07:04:58;;;;;;;11.57;7.72;;;11.40;81.10;;;;;;5003942;28;20038;-69
2021/10/29 07:40:08;;;;;;;11.50;8.07;;;12.00;79.50;;;;;;5007000;28;20173;-69
2021/10/29 07:42:42;;;;;;;14.30;7.95;;;12.10;79.50;;;;;;5003792;28;20420;-68
2021/10/29 07:45:09;;;;;;;13.40;9.00;;;12.10;79.20;;;;;;5007128;28;20233;-68
2021/10/29 07:47:37;;;;;;;14.00;9.25;;;12.10;79.30;;;;;;5001477;28;20646;-68
2021/10/29 07:50:05;;;;;;;12.55;7.93;;;12.20;79.20;;;;;;5007686;28;20021;-68
2021/10/29 07:52:32;;;;;;;11.68;8.02;;;12.20;79.20;;;;;;5005755;28;20033;-69
2021/10/29 07:54:58;;;;;;;12.90;8.02;;;12.20;78.90;;;;;;5004595;28;20030;-68
2021/10/29 07:57:24;;;;;;;13.32;8.23;;;12.30;78.80;;;;;;5010099;28;20028;-69
2021/10/29 07:59:51;;;;;;;14.77;8.27;;;12.40;78.50;;;;;;5011021;28;20121;-70
2021/10/29 08:02:17;;;;;;;14.20;8.38;;;12.40;78.60;;;;;;5006574;28;20050;-68
2021/10/29 08:04:44;;;;;;;11.95;8.35;;;12.50;78.40;;;;;;5010306;28;20034;-69
2021/10/29 08:07:10;;;;;;;13.07;8.32;;;12.60;78.40;;;;;;5003447;28;20030;-69
2021/10/29 08:09:36;;;;;;;12.30;8.23;;;12.60;78.10;;;;;;5003186;28;20125;-72
2021/10/29 08:12:02;;;;;;;11.35;7.75;;;12.70;77.90;;;;;;4998483;28;20041;-69
2021/10/29 08:14:28;;;;;;;13.07;7.75;;;12.80;78.00;;;;;;5002466;28;20026;-69
2021/10/29 08:16:53;;;;;;;11.93;7.68;;;12.90;77.50;;;;;;4999889;28;21477;-70
2021/10/29 08:19:33;;;;;;;12.32;6.78;;;12.90;77.40;;;;;;5016964;28;20157;-68
2021/10/29 08:22:00;;;;;;;11.05;6.40;;;13.00;76.80;;;;;;4999800;28;20030;-72
2021/10/29 08:24:27;;;;;;;10.98;7.25;;;13.00;76.50;;;;;;4998891;28;20141;-69
2021/10/29 08:26:53;;;;;;;9.88;6.82;;;13.00;76.60;;;;;;5005519;28;20084;-70
2021/10/29 08:29:20;;;;;;;13.18;7.35;;;13.00;76.70;;;;;;4998263;28;20034;-69
2021/10/29 08:31:47;;;;;;;12.30;7.15;;;13.10;76.30;;;;;;4998687;28;20030;-70
2021/10/29 08:34:14;;;;;;;15.93;6.65;;;13.20;75.90;;;;;;5003897;28;20045;-69
2021/10/29 08:36:41;;;;;;;13.63;6.50;;;13.40;75.80;;;;;;4996373;28;20539;-72
2021/10/29 08:39:08;;;;;;;9.85;5.95;;;13.70;75.30;;;;;;4996609;28;20042;-71
2021/10/29 08:41:36;;;;;;;10.07;6.15;;;14.00;74.20;;;;;;5000709;28;20081;-69
2021/10/29 08:44:04;;;;;;;11.05;5.88;;;14.20;73.30;;;;;;5003618;28;20466;-68
2021/10/29 08:46:30;;;;;;;11.38;6.07;;;14.50;72.60;;;;;;4998855;28;20026;-68
2021/10/29 08:48:57;;;;;;;12.38;6.10;;;14.80;71.90;;;;;;5015480;28;20072;-71
2021/10/29 08:51:24;;;;;;;14.00;6.78;;;14.80;71.30;;;;;;4998270;28;20046;-69
2021/10/29 08:53:52;;;;;;;11.07;5.90;;;14.90;70.60;;;;;;5000985;28;20037;-70
2021/10/29 08:56:18;;;;;;;10.00;5.60;;;15.20;70.80;;;;;;4997389;28;20053;-69
2021/10/29 08:59:16;;;;;;;10.40;5.43;;;15.50;69.40;;;;;;5000143;28;20042;-70
2021/10/29 09:04:45;;;;;;;8.57;4.43;;;16.00;67.50;;;;;;5003536;28;20113;-68
2021/10/29 09:32:22;;;;;;;9.10;4.30;;;16.10;65.90;;;;;;4999725;28;24954;-69
2021/10/29 09:35:13;;;;;;;10.75;4.90;;;16.20;66.20;;;;;;5008669;28;20042;-68
2021/10/29 09:38:09;;;;;;;12.43;4.63;;;16.40;66.00;;;;;;5007844;28;20038;-68
2021/10/29 09:40:39;;;;;;;;;;;16.30;66.00;;;;;;5005724;28;20033;-68
2021/10/29 09:43:23;;;;;;;10.82;4.72;;;16.40;65.00;;;;;;5007508;28;19925;-70
2021/10/29 09:45:58;;;;;;;9.02;4.53;;;16.40;65.10;;;;;;5004986;28;20050;-68
2021/10/29 09:48:31;;;;;;;8.68;4.40;;;16.40;65.70;;;;;;5005198;28;20440;-69
2021/10/29 09:50:59;;;;;;;8.45;4.10;;;16.40;65.40;;;;;;5007960;28;20409;-70
2021/10/29 09:53:42;;;;;;;9.32;4.43;;;16.50;64.90;;;;;;5011429;28;20103;-73
2021/10/29 09:58:55;;;;;;;7.13;4.35;;;16.50;64.70;;;;;;5014265;28;20080;-70
2021/10/29 10:01:29;;;;;;;10.85;4.93;;;16.60;65.00;;;;;;5004138;28;20466;-68
2021/10/29 10:03:55;;;;;;;11.48;4.70;;;16.60;65.10;;;;;;5028112;28;20116;-69
2021/10/29 10:06:23;;;;;;;10.77;4.20;;;16.60;65.40;;;;;;5011301;28;20180;-69
2021/10/29 10:08:57;;;;;;;10.15;4.25;;;16.70;65.70;;;;;;5007906;28;20034;-69
2021/10/29 10:11:26;;;;;;;9.35;4.82;;;16.90;65.40;;;;;;5001610;28;20046;-70
2021/10/29 10:13:54;;;;;;;6.72;3.95;;;17.00;64.30;;;;;;4998822;28;20217;-69
2021/10/29 10:16:21;;;;;;;8.93;4.20;;;17.10;64.10;;;;;;5015768;28;20481;-70
2021/10/29 10:18:47;;;;;;;10.35;4.65;;;17.10;64.30;;;;;;5001871;28;20046;-71
2021/10/29 10:21:18;;;;;;;9.82;4.10;;;17.30;64.90;;;;;;5000821;28;20049;-70
2021/10/29 10:23:47;;;;;;;10.20;4.38;;;17.30;63.20;;;;;;5001990;28;20097;-69
2021/10/29 10:46:21;;;;;;;12.52;4.35;;;17.30;64.30;;;;;;5006914;28;20474;-70
2021/10/29 10:49:05;;;;;;;10.50;5.03;;;17.10;64.60;;;;;;5009172;28;20046;-69
2021/10/29 10:54:33;;;;;;;9.45;4.25;;;16.70;66.40;;;;;;5001483;28;20033;-69
2021/10/29 10:57:14;;;;;;;9.13;4.40;;;16.60;66.70;;;;;;5002079;28;20073;-70
2021/10/29 11:10:10;;;;;;;10.93;4.65;;;16.50;68.20;;;;;;5010879;28;20038;-69
2021/10/29 11:13:03;;;;;;;9.38;5.00;;;16.50;67.80;;;;;;5006674;28;20049;-72
2021/10/29 11:15:29;;;;;;;10.68;4.55;;;16.50;68.30;;;;;;5001879;28;20030;-69
2021/10/29 11:18:02;;;;;;;10.77;4.50;;;16.50;68.50;;;;;;4997867;28;20056;-72
2021/10/29 11:20:50;;;;;;;9.07;4.35;;;16.50;68.50;;;;;;4999417;28;20033;-70
2021/10/29 11:23:33;;;;;;;10.05;4.55;;;16.50;68.30;;;;;;5001294;28;20134;-69
2021/10/29 11:26:08;;;;;;;7.75;4.13;;;16.50;68.40;;;;;;5004786;28;20473;-69
2021/10/29 11:28:44;;;;;;;8.35;3.85;;;16.60;68.20;;;;;;5017869;28;20494;-69
2021/10/29 11:31:18;;;;;;;10.93;4.88;;;16.50;68.60;;;;;;4998214;28;20033;-73
2021/10/29 11:33:46;;;;;;;7.97;4.35;;;16.50;68.70;;;;;;5001460;28;20034;-70
2021/10/29 11:36:15;;;;;;;9.93;4.53;;;16.50;68.60;;;;;;5001152;28;20034;-70
2021/10/29 11:38:44;;;;;;;8.48;4.15;;;16.40;68.90;;;;;;5009951;28;20109;-69
2021/10/29 11:41:13;;;;;;;9.27;4.78;;;16.40;69.30;;;;;;5021776;28;20428;-69
2021/10/29 11:43:39;;;;;;;7.82;4.20;;;16.40;69.20;;;;;;5009306;28;20458;-69
2021/10/29 11:46:08;;;;;;;8.68;4.25;;;16.40;69.40;;;;;;5007427;28;20054;-70
2021/10/29 11:48:43;;;;;;;9.80;4.25;;;16.40;69.50;;;;;;5018255;28;20033;-69
2021/10/29 11:51:11;;;;;;;8.43;4.30;;;16.40;69.70;;;;;;5019731;28;20080;-70
2021/10/29 11:53:55;;;;;;;10.15;4.70;;;16.50;69.50;;;;;;5009041;28;20037;-71
2021/10/29 11:59:16;;;;;;;9.27;4.35;;;16.60;69.40;;;;;;5015460;28;20052;-69
2021/10/29 12:07:25;;;;;;;11.88;4.35;;;16.60;69.90;;;;;;5005771;28;20091;-69
2021/10/29 12:09:52;;;;;;;12.10;4.28;;;16.60;69.90;;;;;;5003287;28;20628;-69
2021/10/29 12:12:23;;;;;;;12.07;4.25;;;16.60;69.50;;;;;;5000568;28;20034;-69
2021/10/29 12:14:52;;;;;;;9.98;4.50;;;16.60;70.10;;;;;;4997664;28;20462;-70
2021/10/29 12:17:23;;;;;;;9.95;4.13;;;16.40;71.10;;;;;;4999437;28;20041;-70
2021/10/29 12:19:54;;;;;;;9.18;4.00;;;16.50;72.20;;;;;;4998925;28;20096;-70
2021/10/29 12:24:53;;;;;;;11.85;4.18;;;16.20;73.50;;;;;;4998597;28;20100;-72
2021/10/29 12:27:28;;;;;;;10.00;4.00;;;16.10;74.70;;;;;;5000281;28;20033;-71
2021/10/29 12:30:14;;;;;;;8.63;4.15;;;15.90;76.20;;;;;;4996867;28;20057;-69
2021/10/29 13:03:03;;;;;;;8.57;5.18;;;14.80;81.90;;;;;;4998192;28;20080;-70
2021/10/29 13:05:29;;;;;;;9.45;5.28;;;14.80;82.60;;;;;;4999132;28;20121;-69
2021/10/29 13:07:55;;;;;;;9.77;5.40;;;14.80;82.70;;;;;;5000329;28;20087;-70
2021/10/29 13:10:21;;;;;;;10.85;4.88;;;14.70;82.90;;;;;;5002639;28;20060;-73
2021/10/29 13:13:05;;;;;;;13.65;5.47;;;14.70;83.00;;;;;;5001735;28;20049;-69
2021/10/29 13:15:31;;;;;;;12.45;5.80;;;14.70;83.50;;;;;;5000811;28;20354;-69
2021/10/29 13:18:01;;;;;;;11.05;5.35;;;14.60;83.30;;;;;;5012746;28;20417;-69
2021/10/29 13:23:36;;;;;;;12.68;5.22;;;14.60;84.40;;;;;;5000010;28;20401;-70
2021/10/29 13:52:45;;;;;;;10.18;5.07;;;14.70;84.60;;;;;;5013904;28;20045;-69
2021/10/29 14:32:45;;;;;;;9.13;4.40;;;15.00;83.00;;;;;;5012045;28;20482;-68
2021/10/29 14:35:21;;;;;;;9.70;4.75;;;15.10;82.60;;;;;;5010338;28;20486;-68
2021/10/29 14:40:39;;;;;;;10.20;4.40;;;15.30;82.10;;;;;;5010641;28;20120;-68
2021/10/29 14:45:54;;;;;;;9.85;4.65;;;15.20;81.60;;;;;;5011859;28;20042;-69
2021/10/29 15:00:11;;;;;;;9.35;4.45;;;15.00;81.90;;;;;;5010417;28;20088;-68
2021/10/29 15:26:32;;;;;;;7.93;4.30;;;14.90;82.60;;;;;;5010582;28;20128;-68
2021/10/29 15:29:40;;;;;;;8.95;4.75;;;14.80;82.80;;;;;;5005477;28;20042;-68
2021/10/29 15:45:24;;;;;;;11.73;5.65;;;14.60;84.00;;;;;;5008007;28;20125;-69
2021/10/29 15:50:31;;;;;;;;;;;14.50;84.30;;;;;;5009574;28;20021;-69
2021/10/29 15:52:57;;;;;;;11.75;6.03;;;14.50;84.40;;;;;;5009280;28;19909;-70
2021/10/29 15:55:34;;;;;;;11.30;5.80;;;14.40;84.40;;;;;;5007374;28;20452;-73
2021/10/29 15:58:53;;;;;;;11.32;6.43;;;14.30;84.60;;;;;;5011512;28;20380;-69
2021/10/29 16:01:07;;;;;;;11.07;6.00;;;14.30;84.90;;;;;;5009116;28;20030;-70
2021/10/29 16:19:34;;;;;;;12.23;6.60;;;14.10;85.60;;;;;;5009319;28;20116;-68
2021/10/29 16:22:04;;;;;;;11.68;6.75;;;14.10;85.50;;;;;;5008055;28;20038;-68
2021/10/29 16:24:30;;;;;;;12.00;7.50;;;14.10;85.80;;;;;;5007277;28;20496;-68
2021/10/29 16:26:57;;;;;;;11.60;7.47;;;14.10;86.10;;;;;;5005146;28;20525;-69
2021/10/29 16:29:24;;;;;;;16.63;7.80;;;14.10;86.10;;;;;;5007822;28;20084;-69
2021/10/29 16:31:50;;;;;;;12.25;7.07;;;14.10;86.10;;;;;;5008588;28;20038;-70
2021/10/29 16:34:16;;;;;;;13.43;7.38;;;14.10;86.00;;;;;;5011704;28;20078;-68
2021/10/29 16:36:42;;;;;;;11.68;7.68;;;14.10;86.00;;;;;;5007602;28;20042;-69
2021/10/29 16:39:09;;;;;;;12.07;7.38;;;14.10;86.10;;;;;;5004611;28;20445;-72
2021/10/29 16:41:34;;;;;;;14.45;7.95;;;14.10;86.10;;;;;;5008280;28;20041;-69
2021/10/29 16:44:00;;;;;;;13.70;8.73;;;14.10;86.20;;;;;;5010773;28;20038;-69
2021/10/29 16:46:26;;;;;;;13.77;7.95;;;14.00;86.30;;;;;;5008869;28;20997;-68
2021/10/29 16:48:52;;;;;;;14.80;8.77;;;14.00;86.40;;;;;;5009918;28;20057;-71
2021/10/29 16:51:18;;;;;;;13.68;8.65;;;14.10;86.30;;;;;;5008195;28;20112;-70
2021/10/29 16:53:44;;;;;;;13.88;7.53;;;14.00;86.30;;;;;;5013367;28;20033;-70
2021/10/29 16:56:12;;;;;;;13.05;7.78;;;14.00;86.30;;;;;;5006812;28;20042;-69
2021/10/29 16:58:38;;;;;;;12.75;8.43;;;14.00;86.30;;;;;;5009249;28;20033;-70
2021/10/29 17:01:04;;;;;;;13.88;8.55;;;14.00;86.40;;;;;;5005666;28;20758;-70
2021/10/29 17:03:30;;;;;;;15.00;8.68;;;14.00;86.30;;;;;;5009588;28;20034;-68
2021/10/29 17:05:56;;;;;;;14.40;8.73;;;14.00;86.30;;;;;;5012033;28;20030;-68
2021/10/29 17:08:22;;;;;;;12.90;8.30;;;14.00;86.20;;;;;;5009190;28;20049;-69
2021/10/29 17:10:48;;;;;;;16.00;8.95;;;14.00;86.20;;;;;;5013237;28;20045;-68
2021/10/29 17:13:14;;;;;;;13.27;8.70;;;13.90;86.30;;;;;;5013554;28;20057;-68
2021/10/29 17:15:40;;;;;;;12.85;8.50;;;13.90;86.40;;;;;;5008962;28;20489;-67
2021/10/29 17:18:08;;;;;;;12.38;8.32;;;13.90;86.40;;;;;;5006276;28;20137;-68
2021/10/29 17:20:34;;;;;;;18.67;10.20;;;13.90;86.40;;;;;;5007637;28;20036;-68
2021/10/29 17:23:00;;;;;;;16.65;9.02;;;13.90;86.40;;;;;;5005546;28;20114;-69
2021/10/29 17:25:26;;;;;;;17.38;8.98;;;13.80;86.40;;;;;;5022659;28;20037;-70
2021/10/29 17:27:52;;;;;;;13.98;8.88;;;13.90;86.50;;;;;;5008873;28;20030;-67
2021/10/29 17:30:18;;;;;;;15.80;10.52;;;13.80;86.40;;;;;;5007534;28;20481;-68
2021/10/29 17:32:48;;;;;;;15.15;9.30;;;13.80;86.60;;;;;;5004938;28;20041;-68
2021/10/29 17:35:18;;;;;;;16.25;10.00;;;13.80;86.70;;;;;;5009234;28;20084;-68
2021/10/29 17:37:45;;;;;;;13.88;9.57;;;13.70;86.70;;;;;;5008355;28;20504;-68
2021/10/29 17:40:12;;;;;;;14.05;9.38;;;13.70;86.70;;;;;;5005897;28;20030;-67
2021/10/29 17:42:38;;;;;;;13.75;9.50;;;13.70;86.70;;;;;;5008325;28;20049;-71
2021/10/29 17:45:08;;;;;;;14.40;10.02;;;13.70;86.70;;;;;;5007071;28;20088;-69
2021/10/29 17:47:34;;;;;;;14.40;10.55;;;13.60;86.80;;;;;;5007079;28;20022;-68
2021/10/29 17:49:59;;;;;;;16.05;10.48;;;13.60;86.90;;;;;;5008004;28;20030;-69